Hovedside
METAR-TAF:

METAR-TAF

Lufthavner :

Nyslott lufthavn

Nyslott, Finland

breddegrad: 61-57N, lengdegrad: 028-57E, høyde over havet: 95 m

Gjeldene værobservasjon

Denne rapporten ble laget for 25 minutter siden, klokken 06:20 UTC
Vind 10 kt fra Vest-nordvest, skiftende mellom Vest-sørvest og Nordvest
Temperatur 2°C
Luftfuktighet 80%
Trykk 1023 hPa
Sikt 10 km eller mer
Overskyet i en høyde av 1900 ft

METAR: EFSA 150620Z AUTO 29010KT 250V320 9999 OVC019 02/M01 Q1023

Tid: 08:45 (06:45 UTC)

Varsel

Denne rapporten ble laget for 1 time og 11 minutter siden, klokken 05:34 UTC
Varsel gyldig fra 15. klokken 06 UTC til 15. klokken 15 UTC
Vind 9 kt fra Vest
Sikt 10 km eller mer
Overskyet i en høyde av 1700 ft
Midlertidig
fra 15. klokken 06 UTC til 15. klokken 10 UTC
Brutte skyer i en høyde av 1400 ft

TAF: EFSA 150534Z 1506/1515 27009KT 9999 OVC017 TEMPO 1506/1510 BKN014

Værobservasjoner og værvarsel for over 4000 flyplasser (METAR- og TAF-rapporter).

Tilgjengelige stasjoner er representert av de røde og gule prikkene på kartet.

Hold musepekeren over prikken for å se navnet på stasjonen.

Klikk så for å se værobservasjoner og -varsler.

For å forandre kartet kan du klikke på den grønne knappen med svart kryss for å zoome inn, på den grønne knappen med strek for å zoome ut, eller på de grønne pilene for å se tilstøtende kart.


METAR-TAF: